Terminal Aerodrome Forecast
Issued by NWS

Home | Current Version | Previous Version | Graphics & Text | Print | Product List | Glossary On
Versions: 1 2 3 4 5 6 7 8 9 10 11 12 13 14 15 16 17 18 19 20 21 22 23
000
FTUS43 KBIS 181600 AAD
TAFDIK
TAF AMD
KDIK 181612Z 1816/1912 29010G20KT P6SM BKN015
     FM181800 31014G23KT P6SM VCSH SCT015 BKN040
     FM182100 32012G18KT P6SM SCT040
     FM190100 32004KT P6SM SKC=

USA.gov is the U.S. government's official web portal to all federal, state and local government web resources and services.